sensor_id;sensor_type;location;lat;lon;timestamp;P1;durP1;ratioP1;P2;durP2;ratioP2
11514;SDS011;5814;41.936;25.556;2023-05-27T00:00:30;8.63;;;7.82;;
11514;SDS011;5814;41.936;25.556;2023-05-27T00:02:56;8.15;;;7.57;;
11514;SDS011;5814;41.936;25.556;2023-05-27T00:05:23;8.05;;;7.40;;
11514;SDS011;5814;41.936;25.556;2023-05-27T00:07:49;8.85;;;8.15;;
11514;SDS011;5814;41.936;25.556;2023-05-27T00:10:16;8.73;;;8.02;;
11514;SDS011;5814;41.936;25.556;2023-05-27T00:12:42;8.23;;;7.62;;
11514;SDS011;5814;41.936;25.556;2023-05-27T00:15:08;8.15;;;7.53;;
11514;SDS011;5814;41.936;25.556;2023-05-27T00:17:35;10.20;;;7.57;;
11514;SDS011;5814;41.936;25.556;2023-05-27T00:20:01;8.77;;;8.18;;
11514;SDS011;5814;41.936;25.556;2023-05-27T00:22:29;8.25;;;7.75;;
11514;SDS011;5814;41.936;25.556;2023-05-27T00:24:55;8.45;;;7.75;;
11514;SDS011;5814;41.936;25.556;2023-05-27T00:27:21;8.60;;;7.80;;
11514;SDS011;5814;41.936;25.556;2023-05-27T00:29:48;8.43;;;7.75;;
11514;SDS011;5814;41.936;25.556;2023-05-27T00:32:14;8.30;;;7.15;;
11514;SDS011;5814;41.936;25.556;2023-05-27T00:34:40;8.07;;;7.57;;
11514;SDS011;5814;41.936;25.556;2023-05-27T00:37:07;7.82;;;7.30;;
11514;SDS011;5814;41.936;25.556;2023-05-27T00:39:33;7.65;;;6.93;;
11514;SDS011;5814;41.936;25.556;2023-05-27T00:41:59;7.20;;;6.70;;
11514;SDS011;5814;41.936;25.556;2023-05-27T00:44:26;7.47;;;6.97;;
11514;SDS011;5814;41.936;25.556;2023-05-27T00:46:52;6.97;;;6.47;;
11514;SDS011;5814;41.936;25.556;2023-05-27T00:49:18;7.00;;;6.47;;
11514;SDS011;5814;41.936;25.556;2023-05-27T00:51:45;7.87;;;7.12;;
11514;SDS011;5814;41.936;25.556;2023-05-27T00:54:11;7.68;;;6.97;;
11514;SDS011;5814;41.936;25.556;2023-05-27T00:56:38;7.45;;;6.85;;
11514;SDS011;5814;41.936;25.556;2023-05-27T00:59:04;6.70;;;6.30;;
11514;SDS011;5814;41.936;25.556;2023-05-27T01:01:30;7.43;;;6.68;;
11514;SDS011;5814;41.936;25.556;2023-05-27T01:03:57;7.57;;;7.07;;
11514;SDS011;5814;41.936;25.556;2023-05-27T01:06:25;6.62;;;6.18;;
11514;SDS011;5814;41.936;25.556;2023-05-27T01:08:53;7.10;;;6.60;;
11514;SDS011;5814;41.936;25.556;2023-05-27T01:11:19;7.40;;;6.95;;
11514;SDS011;5814;41.936;25.556;2023-05-27T01:13:46;7.50;;;6.95;;
11514;SDS011;5814;41.936;25.556;2023-05-27T01:16:13;7.95;;;7.43;;
11514;SDS011;5814;41.936;25.556;2023-05-27T01:18:39;7.40;;;6.80;;
11514;SDS011;5814;41.936;25.556;2023-05-27T01:21:06;6.78;;;6.18;;
11514;SDS011;5814;41.936;25.556;2023-05-27T01:23:32;7.53;;;6.82;;
11514;SDS011;5814;41.936;25.556;2023-05-27T01:25:58;7.15;;;6.57;;
11514;SDS011;5814;41.936;25.556;2023-05-27T01:28:24;7.22;;;6.70;;
11514;SDS011;5814;41.936;25.556;2023-05-27T01:30:51;7.85;;;7.20;;
11514;SDS011;5814;41.936;25.556;2023-05-27T01:33:20;6.82;;;6.20;;
11514;SDS011;5814;41.936;25.556;2023-05-27T01:35:52;7.30;;;6.90;;
11514;SDS011;5814;41.936;25.556;2023-05-27T01:38:21;7.47;;;6.97;;
11514;SDS011;5814;41.936;25.556;2023-05-27T01:40:47;7.50;;;7.00;;
11514;SDS011;5814;41.936;25.556;2023-05-27T01:43:13;8.50;;;6.90;;
11514;SDS011;5814;41.936;25.556;2023-05-27T01:45:39;7.35;;;6.85;;
11514;SDS011;5814;41.936;25.556;2023-05-27T01:48:06;7.90;;;7.15;;
11514;SDS011;5814;41.936;25.556;2023-05-27T01:50:32;8.25;;;7.68;;
11514;SDS011;5814;41.936;25.556;2023-05-27T01:52:59;8.13;;;7.62;;
11514;SDS011;5814;41.936;25.556;2023-05-27T01:55:25;8.13;;;7.50;;
11514;SDS011;5814;41.936;25.556;2023-05-27T01:57:51;10.35;;;9.50;;
11514;SDS011;5814;41.936;25.556;2023-05-27T02:00:17;10.65;;;9.75;;
11514;SDS011;5814;41.936;25.556;2023-05-27T02:02:44;9.13;;;7.90;;
11514;SDS011;5814;41.936;25.556;2023-05-27T02:05:10;8.77;;;8.18;;
11514;SDS011;5814;41.936;25.556;2023-05-27T02:07:36;10.95;;;10.13;;
11514;SDS011;5814;41.936;25.556;2023-05-27T02:10:03;12.98;;;11.73;;
11514;SDS011;5814;41.936;25.556;2023-05-27T02:12:29;10.18;;;9.20;;
11514;SDS011;5814;41.936;25.556;2023-05-27T02:14:56;27.80;;;24.52;;
11514;SDS011;5814;41.936;25.556;2023-05-27T02:17:22;14.35;;;13.15;;
11514;SDS011;5814;41.936;25.556;2023-05-27T02:19:48;11.77;;;10.85;;
11514;SDS011;5814;41.936;25.556;2023-05-27T02:22:15;8.75;;;8.15;;
11514;SDS011;5814;41.936;25.556;2023-05-27T02:24:41;11.02;;;10.10;;
11514;SDS011;5814;41.936;25.556;2023-05-27T02:27:07;9.02;;;8.30;;
11514;SDS011;5814;41.936;25.556;2023-05-27T02:29:34;11.65;;;10.70;;
11514;SDS011;5814;41.936;25.556;2023-05-27T02:32:00;8.93;;;8.13;;
11514;SDS011;5814;41.936;25.556;2023-05-27T02:34:26;9.70;;;9.00;;
11514;SDS011;5814;41.936;25.556;2023-05-27T02:36:53;12.18;;;11.18;;
11514;SDS011;5814;41.936;25.556;2023-05-27T02:39:19;13.98;;;12.85;;
11514;SDS011;5814;41.936;25.556;2023-05-27T02:41:45;16.48;;;15.23;;
11514;SDS011;5814;41.936;25.556;2023-05-27T02:44:12;12.85;;;12.00;;
11514;SDS011;5814;41.936;25.556;2023-05-27T02:46:38;12.10;;;11.10;;
11514;SDS011;5814;41.936;25.556;2023-05-27T02:49:05;9.95;;;9.35;;
11514;SDS011;5814;41.936;25.556;2023-05-27T02:51:31;12.02;;;10.25;;
11514;SDS011;5814;41.936;25.556;2023-05-27T02:53:57;16.00;;;14.60;;
11514;SDS011;5814;41.936;25.556;2023-05-27T02:56:24;13.18;;;10.82;;
11514;SDS011;5814;41.936;25.556;2023-05-27T02:58:50;11.25;;;8.88;;
11514;SDS011;5814;41.936;25.556;2023-05-27T03:01:16;14.20;;;13.13;;
11514;SDS011;5814;41.936;25.556;2023-05-27T03:03:43;8.88;;;7.97;;
11514;SDS011;5814;41.936;25.556;2023-05-27T03:06:09;10.45;;;9.35;;
11514;SDS011;5814;41.936;25.556;2023-05-27T03:08:35;8.25;;;7.45;;
11514;SDS011;5814;41.936;25.556;2023-05-27T03:11:02;13.52;;;12.32;;
11514;SDS011;5814;41.936;25.556;2023-05-27T03:13:28;10.00;;;9.00;;
11514;SDS011;5814;41.936;25.556;2023-05-27T03:15:54;10.50;;;9.70;;
11514;SDS011;5814;41.936;25.556;2023-05-27T03:18:21;11.80;;;10.90;;
11514;SDS011;5814;41.936;25.556;2023-05-27T03:20:47;8.00;;;7.40;;
11514;SDS011;5814;41.936;25.556;2023-05-27T03:23:13;7.78;;;7.18;;
11514;SDS011;5814;41.936;25.556;2023-05-27T03:25:40;8.20;;;7.43;;
11514;SDS011;5814;41.936;25.556;2023-05-27T03:28:06;7.37;;;6.97;;
11514;SDS011;5814;41.936;25.556;2023-05-27T03:30:32;8.98;;;8.15;;
11514;SDS011;5814;41.936;25.556;2023-05-27T03:32:59;13.30;;;9.98;;
11514;SDS011;5814;41.936;25.556;2023-05-27T03:35:25;11.30;;;10.10;;
11514;SDS011;5814;41.936;25.556;2023-05-27T03:37:52;13.62;;;9.65;;
11514;SDS011;5814;41.936;25.556;2023-05-27T03:40:18;9.45;;;8.65;;
11514;SDS011;5814;41.936;25.556;2023-05-27T03:42:44;22.48;;;20.35;;
11514;SDS011;5814;41.936;25.556;2023-05-27T03:45:11;14.75;;;13.62;;
11514;SDS011;5814;41.936;25.556;2023-05-27T03:47:37;11.05;;;10.13;;
11514;SDS011;5814;41.936;25.556;2023-05-27T03:50:04;11.98;;;11.05;;
11514;SDS011;5814;41.936;25.556;2023-05-27T03:52:30;11.18;;;10.25;;
11514;SDS011;5814;41.936;25.556;2023-05-27T03:54:56;9.05;;;8.15;;
11514;SDS011;5814;41.936;25.556;2023-05-27T03:57:23;9.98;;;9.18;;
11514;SDS011;5814;41.936;25.556;2023-05-27T03:59:49;10.27;;;9.18;;
11514;SDS011;5814;41.936;25.556;2023-05-27T04:02:15;9.40;;;8.57;;
11514;SDS011;5814;41.936;25.556;2023-05-27T04:04:42;19.52;;;17.67;;
11514;SDS011;5814;41.936;25.556;2023-05-27T04:07:08;11.48;;;10.55;;
11514;SDS011;5814;41.936;25.556;2023-05-27T04:09:35;16.55;;;14.98;;
11514;SDS011;5814;41.936;25.556;2023-05-27T04:12:01;11.93;;;10.85;;
11514;SDS011;5814;41.936;25.556;2023-05-27T04:14:27;7.53;;;6.82;;
11514;SDS011;5814;41.936;25.556;2023-05-27T04:16:54;8.25;;;7.50;;
11514;SDS011;5814;41.936;25.556;2023-05-27T04:19:20;10.45;;;9.52;;
11514;SDS011;5814;41.936;25.556;2023-05-27T04:21:46;8.82;;;8.02;;
11514;SDS011;5814;41.936;25.556;2023-05-27T04:24:13;7.87;;;7.37;;
11514;SDS011;5814;41.936;25.556;2023-05-27T04:26:39;7.95;;;7.07;;
11514;SDS011;5814;41.936;25.556;2023-05-27T04:29:05;9.55;;;8.82;;
11514;SDS011;5814;41.936;25.556;2023-05-27T04:31:32;8.73;;;8.02;;
11514;SDS011;5814;41.936;25.556;2023-05-27T04:33:58;11.68;;;10.60;;
11514;SDS011;5814;41.936;25.556;2023-05-27T04:36:24;10.20;;;9.32;;
11514;SDS011;5814;41.936;25.556;2023-05-27T04:38:51;8.63;;;7.82;;
11514;SDS011;5814;41.936;25.556;2023-05-27T04:41:17;8.07;;;7.47;;
11514;SDS011;5814;41.936;25.556;2023-05-27T04:43:43;8.27;;;7.57;;
11514;SDS011;5814;41.936;25.556;2023-05-27T04:46:10;7.93;;;7.20;;
11514;SDS011;5814;41.936;25.556;2023-05-27T04:48:36;7.87;;;7.20;;
11514;SDS011;5814;41.936;25.556;2023-05-27T04:51:02;11.38;;;8.63;;
11514;SDS011;5814;41.936;25.556;2023-05-27T04:53:29;12.27;;;8.70;;
11514;SDS011;5814;41.936;25.556;2023-05-27T04:55:55;24.17;;;21.90;;
11514;SDS011;5814;41.936;25.556;2023-05-27T04:58:21;21.37;;;19.42;;
11514;SDS011;5814;41.936;25.556;2023-05-27T05:00:48;9.70;;;9.05;;
11514;SDS011;5814;41.936;25.556;2023-05-27T05:03:16;12.23;;;11.02;;
11514;SDS011;5814;41.936;25.556;2023-05-27T05:05:41;13.38;;;9.32;;
11514;SDS011;5814;41.936;25.556;2023-05-27T05:08:08;7.30;;;6.55;;
11514;SDS011;5814;41.936;25.556;2023-05-27T05:10:34;6.60;;;6.20;;
11514;SDS011;5814;41.936;25.556;2023-05-27T05:13:00;7.80;;;7.20;;
11514;SDS011;5814;41.936;25.556;2023-05-27T05:15:27;9.27;;;8.57;;
11514;SDS011;5814;41.936;25.556;2023-05-27T05:17:53;13.38;;;12.30;;
11514;SDS011;5814;41.936;25.556;2023-05-27T05:20:19;9.55;;;8.55;;
11514;SDS011;5814;41.936;25.556;2023-05-27T05:22:46;16.37;;;14.90;;
11514;SDS011;5814;41.936;25.556;2023-05-27T05:25:12;15.43;;;14.10;;
11514;SDS011;5814;41.936;25.556;2023-05-27T05:27:39;10.40;;;9.30;;
11514;SDS011;5814;41.936;25.556;2023-05-27T05:30:05;9.45;;;8.77;;
11514;SDS011;5814;41.936;25.556;2023-05-27T05:32:32;10.25;;;9.55;;
11514;SDS011;5814;41.936;25.556;2023-05-27T05:34:58;10.43;;;9.52;;
11514;SDS011;5814;41.936;25.556;2023-05-27T05:37:25;8.75;;;7.78;;
11514;SDS011;5814;41.936;25.556;2023-05-27T05:39:53;24.25;;;21.10;;
11514;SDS011;5814;41.936;25.556;2023-05-27T05:42:18;12.50;;;11.38;;
11514;SDS011;5814;41.936;25.556;2023-05-27T05:44:44;10.18;;;9.48;;
11514;SDS011;5814;41.936;25.556;2023-05-27T05:47:10;9.50;;;8.80;;
11514;SDS011;5814;41.936;25.556;2023-05-27T05:49:37;11.57;;;10.57;;
11514;SDS011;5814;41.936;25.556;2023-05-27T05:52:03;15.45;;;13.02;;
11514;SDS011;5814;41.936;25.556;2023-05-27T05:54:30;19.27;;;17.55;;
11514;SDS011;5814;41.936;25.556;2023-05-27T05:56:56;14.90;;;13.45;;
11514;SDS011;5814;41.936;25.556;2023-05-27T05:59:23;11.80;;;10.77;;
11514;SDS011;5814;41.936;25.556;2023-05-27T06:01:49;11.10;;;10.18;;
11514;SDS011;5814;41.936;25.556;2023-05-27T06:04:15;10.82;;;10.07;;
11514;SDS011;5814;41.936;25.556;2023-05-27T06:06:42;10.25;;;9.45;;
11514;SDS011;5814;41.936;25.556;2023-05-27T06:09:08;9.48;;;8.65;;
11514;SDS011;5814;41.936;25.556;2023-05-27T06:11:35;12.50;;;11.70;;
11514;SDS011;5814;41.936;25.556;2023-05-27T06:14:01;8.48;;;7.70;;
11514;SDS011;5814;41.936;25.556;2023-05-27T06:16:27;10.23;;;6.75;;
11514;SDS011;5814;41.936;25.556;2023-05-27T06:18:54;9.35;;;8.65;;
11514;SDS011;5814;41.936;25.556;2023-05-27T06:21:20;7.87;;;7.28;;
11514;SDS011;5814;41.936;25.556;2023-05-27T06:23:46;8.68;;;7.97;;
11514;SDS011;5814;41.936;25.556;2023-05-27T06:26:14;7.65;;;7.15;;
11514;SDS011;5814;41.936;25.556;2023-05-27T06:28:39;15.77;;;14.45;;
11514;SDS011;5814;41.936;25.556;2023-05-27T06:31:05;10.77;;;9.23;;
11514;SDS011;5814;41.936;25.556;2023-05-27T06:33:32;11.93;;;11.07;;
11514;SDS011;5814;41.936;25.556;2023-05-27T06:35:58;8.43;;;7.40;;
11514;SDS011;5814;41.936;25.556;2023-05-27T06:38:24;8.60;;;7.97;;
11514;SDS011;5814;41.936;25.556;2023-05-27T06:40:51;10.00;;;9.20;;
11514;SDS011;5814;41.936;25.556;2023-05-27T06:43:17;9.98;;;9.05;;
11514;SDS011;5814;41.936;25.556;2023-05-27T06:45:43;18.10;;;15.73;;
11514;SDS011;5814;41.936;25.556;2023-05-27T06:48:10;17.00;;;15.27;;
11514;SDS011;5814;41.936;25.556;2023-05-27T06:50:36;12.68;;;11.38;;
11514;SDS011;5814;41.936;25.556;2023-05-27T06:53:03;11.05;;;9.98;;
11514;SDS011;5814;41.936;25.556;2023-05-27T06:55:29;9.93;;;9.07;;
11514;SDS011;5814;41.936;25.556;2023-05-27T06:57:55;10.15;;;9.15;;
11514;SDS011;5814;41.936;25.556;2023-05-27T07:00:22;7.97;;;7.47;;
11514;SDS011;5814;41.936;25.556;2023-05-27T07:02:48;9.40;;;8.60;;
11514;SDS011;5814;41.936;25.556;2023-05-27T07:05:14;10.90;;;9.82;;
11514;SDS011;5814;41.936;25.556;2023-05-27T07:07:41;14.98;;;9.98;;
11514;SDS011;5814;41.936;25.556;2023-05-27T07:10:07;21.02;;;18.45;;
11514;SDS011;5814;41.936;25.556;2023-05-27T07:12:34;13.18;;;12.25;;
11514;SDS011;5814;41.936;25.556;2023-05-27T07:15:00;9.18;;;8.48;;
11514;SDS011;5814;41.936;25.556;2023-05-27T07:17:26;7.62;;;7.00;;
11514;SDS011;5814;41.936;25.556;2023-05-27T07:19:53;8.35;;;7.65;;
11514;SDS011;5814;41.936;25.556;2023-05-27T07:22:19;10.00;;;9.23;;
11514;SDS011;5814;41.936;25.556;2023-05-27T07:24:45;12.68;;;11.50;;
11514;SDS011;5814;41.936;25.556;2023-05-27T07:27:12;9.27;;;8.48;;
11514;SDS011;5814;41.936;25.556;2023-05-27T07:29:38;9.63;;;8.95;;
11514;SDS011;5814;41.936;25.556;2023-05-27T07:32:04;8.50;;;7.97;;
11514;SDS011;5814;41.936;25.556;2023-05-27T07:34:31;9.80;;;8.80;;
11514;SDS011;5814;41.936;25.556;2023-05-27T07:36:57;8.07;;;7.40;;
11514;SDS011;5814;41.936;25.556;2023-05-27T07:39:23;9.63;;;8.90;;
11514;SDS011;5814;41.936;25.556;2023-05-27T07:41:50;8.40;;;7.70;;
11514;SDS011;5814;41.936;25.556;2023-05-27T07:44:17;9.10;;;8.40;;
11514;SDS011;5814;41.936;25.556;2023-05-27T07:46:43;9.63;;;8.82;;
11514;SDS011;5814;41.936;25.556;2023-05-27T07:49:09;8.63;;;8.05;;
11514;SDS011;5814;41.936;25.556;2023-05-27T07:51:35;9.95;;;9.07;;
11514;SDS011;5814;41.936;25.556;2023-05-27T07:54:02;8.95;;;8.25;;
11514;SDS011;5814;41.936;25.556;2023-05-27T07:56:28;6.62;;;6.22;;
11514;SDS011;5814;41.936;25.556;2023-05-27T07:58:54;6.70;;;6.20;;
11514;SDS011;5814;41.936;25.556;2023-05-27T08:01:21;7.95;;;7.35;;
11514;SDS011;5814;41.936;25.556;2023-05-27T08:03:47;11.90;;;11.10;;
11514;SDS011;5814;41.936;25.556;2023-05-27T08:06:13;19.98;;;17.98;;
11514;SDS011;5814;41.936;25.556;2023-05-27T08:08:40;23.23;;;20.92;;
11514;SDS011;5814;41.936;25.556;2023-05-27T08:11:06;11.02;;;10.23;;
11514;SDS011;5814;41.936;25.556;2023-05-27T08:13:32;7.87;;;7.37;;
11514;SDS011;5814;41.936;25.556;2023-05-27T08:15:59;10.40;;;9.50;;
11514;SDS011;5814;41.936;25.556;2023-05-27T08:18:25;9.15;;;8.45;;
11514;SDS011;5814;41.936;25.556;2023-05-27T08:20:51;8.95;;;8.15;;
11514;SDS011;5814;41.936;25.556;2023-05-27T08:23:18;9.18;;;8.43;;
11514;SDS011;5814;41.936;25.556;2023-05-27T08:25:44;8.90;;;8.00;;
11514;SDS011;5814;41.936;25.556;2023-05-27T08:28:10;8.48;;;7.97;;
11514;SDS011;5814;41.936;25.556;2023-05-27T08:30:37;7.82;;;7.12;;
11514;SDS011;5814;41.936;25.556;2023-05-27T08:33:03;10.05;;;7.47;;
11514;SDS011;5814;41.936;25.556;2023-05-27T08:35:29;8.02;;;7.43;;
11514;SDS011;5814;41.936;25.556;2023-05-27T08:37:56;9.65;;;8.45;;
11514;SDS011;5814;41.936;25.556;2023-05-27T08:40:22;11.25;;;10.43;;
11514;SDS011;5814;41.936;25.556;2023-05-27T08:42:49;7.10;;;6.70;;
11514;SDS011;5814;41.936;25.556;2023-05-27T08:45:15;7.00;;;6.50;;
11514;SDS011;5814;41.936;25.556;2023-05-27T08:47:41;6.70;;;6.22;;
11514;SDS011;5814;41.936;25.556;2023-05-27T08:50:08;7.62;;;7.07;;
11514;SDS011;5814;41.936;25.556;2023-05-27T08:52:37;7.93;;;7.30;;
11514;SDS011;5814;41.936;25.556;2023-05-27T08:55:01;6.45;;;6.05;;
11514;SDS011;5814;41.936;25.556;2023-05-27T08:57:27;7.37;;;6.87;;
11514;SDS011;5814;41.936;25.556;2023-05-27T08:59:53;10.15;;;9.35;;
11514;SDS011;5814;41.936;25.556;2023-05-27T09:02:20;6.75;;;6.28;;
11514;SDS011;5814;41.936;25.556;2023-05-27T09:04:46;8.23;;;7.45;;
11514;SDS011;5814;41.936;25.556;2023-05-27T09:07:12;6.10;;;5.70;;
11514;SDS011;5814;41.936;25.556;2023-05-27T09:09:39;6.30;;;5.80;;
11514;SDS011;5814;41.936;25.556;2023-05-27T09:12:05;5.90;;;5.40;;
11514;SDS011;5814;41.936;25.556;2023-05-27T09:14:33;6.10;;;5.60;;
11514;SDS011;5814;41.936;25.556;2023-05-27T09:17:04;6.85;;;6.40;;
11514;SDS011;5814;41.936;25.556;2023-05-27T09:19:24;6.53;;;5.95;;
11514;SDS011;5814;41.936;25.556;2023-05-27T09:21:51;7.15;;;6.65;;
11514;SDS011;5814;41.936;25.556;2023-05-27T09:24:17;10.38;;;6.70;;
11514;SDS011;5814;41.936;25.556;2023-05-27T09:26:43;12.80;;;6.80;;
11514;SDS011;5814;41.936;25.556;2023-05-27T09:29:10;9.25;;;8.38;;
11514;SDS011;5814;41.936;25.556;2023-05-27T09:31:38;9.35;;;8.57;;
11514;SDS011;5814;41.936;25.556;2023-05-27T09:36:41;11.23;;;9.35;;
11514;SDS011;5814;41.936;25.556;2023-05-27T09:39:03;13.57;;;10.38;;
11514;SDS011;5814;41.936;25.556;2023-05-27T09:41:29;10.27;;;9.15;;
11514;SDS011;5814;41.936;25.556;2023-05-27T09:43:56;9.95;;;8.77;;
11514;SDS011;5814;41.936;25.556;2023-05-27T09:46:22;9.90;;;9.23;;
11514;SDS011;5814;41.936;25.556;2023-05-27T09:48:48;8.73;;;7.97;;
11514;SDS011;5814;41.936;25.556;2023-05-27T09:51:15;9.52;;;8.15;;
11514;SDS011;5814;41.936;25.556;2023-05-27T09:53:41;7.57;;;6.97;;
11514;SDS011;5814;41.936;25.556;2023-05-27T09:56:07;8.02;;;7.35;;
11514;SDS011;5814;41.936;25.556;2023-05-27T09:58:34;6.72;;;6.28;;
11514;SDS011;5814;41.936;25.556;2023-05-27T10:01:00;8.05;;;7.40;;
11514;SDS011;5814;41.936;25.556;2023-05-27T10:03:26;7.62;;;7.05;;
11514;SDS011;5814;41.936;25.556;2023-05-27T10:05:53;8.05;;;7.37;;
11514;SDS011;5814;41.936;25.556;2023-05-27T10:08:19;7.37;;;6.72;;
11514;SDS011;5814;41.936;25.556;2023-05-27T10:10:45;8.38;;;7.68;;
11514;SDS011;5814;41.936;25.556;2023-05-27T10:13:13;7.60;;;6.55;;
11514;SDS011;5814;41.936;25.556;2023-05-27T10:15:38;7.32;;;6.68;;
11514;SDS011;5814;41.936;25.556;2023-05-27T10:18:05;6.10;;;5.60;;
11514;SDS011;5814;41.936;25.556;2023-05-27T10:20:33;6.95;;;6.20;;
11514;SDS011;5814;41.936;25.556;2023-05-27T10:25:36;6.35;;;5.85;;
11514;SDS011;5814;41.936;25.556;2023-05-27T10:28:02;6.47;;;5.97;;
11514;SDS011;5814;41.936;25.556;2023-05-27T10:30:28;5.87;;;5.40;;
11514;SDS011;5814;41.936;25.556;2023-05-27T10:32:55;7.05;;;6.43;;
11514;SDS011;5814;41.936;25.556;2023-05-27T10:35:25;6.90;;;6.40;;
11514;SDS011;5814;41.936;25.556;2023-05-27T10:37:47;7.82;;;7.18;;
11514;SDS011;5814;41.936;25.556;2023-05-27T10:40:23;6.20;;;5.82;;
11514;SDS011;5814;41.936;25.556;2023-05-27T10:42:40;7.03;;;6.40;;
11514;SDS011;5814;41.936;25.556;2023-05-27T10:45:10;6.03;;;5.45;;
11514;SDS011;5814;41.936;25.556;2023-05-27T10:47:35;6.12;;;5.55;;
11514;SDS011;5814;41.936;25.556;2023-05-27T10:50:08;6.12;;;5.68;;
11514;SDS011;5814;41.936;25.556;2023-05-27T10:52:27;6.53;;;6.00;;
11514;SDS011;5814;41.936;25.556;2023-05-27T10:54:53;6.47;;;5.95;;
11514;SDS011;5814;41.936;25.556;2023-05-27T10:57:19;6.70;;;6.30;;
11514;SDS011;5814;41.936;25.556;2023-05-27T10:59:49;7.72;;;7.18;;
11514;SDS011;5814;41.936;25.556;2023-05-27T11:02:16;8.60;;;7.65;;
11514;SDS011;5814;41.936;25.556;2023-05-27T11:04:43;6.50;;;5.93;;
11514;SDS011;5814;41.936;25.556;2023-05-27T11:07:09;7.05;;;6.50;;
11514;SDS011;5814;41.936;25.556;2023-05-27T11:12:08;6.47;;;5.90;;
11514;SDS011;5814;41.936;25.556;2023-05-27T11:14:34;6.12;;;5.82;;
11514;SDS011;5814;41.936;25.556;2023-05-27T11:17:00;6.28;;;5.87;;
11514;SDS011;5814;41.936;25.556;2023-05-27T11:19:27;6.95;;;6.40;;
11514;SDS011;5814;41.936;25.556;2023-05-27T11:21:53;7.12;;;5.40;;
11514;SDS011;5814;41.936;25.556;2023-05-27T11:24:19;6.40;;;5.90;;
11514;SDS011;5814;41.936;25.556;2023-05-27T11:26:46;5.95;;;5.65;;
11514;SDS011;5814;41.936;25.556;2023-05-27T11:29:13;6.10;;;5.62;;
11514;SDS011;5814;41.936;25.556;2023-05-27T11:31:38;6.15;;;5.75;;
11514;SDS011;5814;41.936;25.556;2023-05-27T11:34:12;6.07;;;5.70;;
11514;SDS011;5814;41.936;25.556;2023-05-27T11:36:37;5.95;;;5.50;;
11514;SDS011;5814;41.936;25.556;2023-05-27T11:39:04;6.37;;;5.80;;
11514;SDS011;5814;41.936;25.556;2023-05-27T11:41:30;6.80;;;5.40;;
11514;SDS011;5814;41.936;25.556;2023-05-27T11:44:00;5.55;;;5.25;;
11514;SDS011;5814;41.936;25.556;2023-05-27T11:46:39;6.75;;;6.30;;
11514;SDS011;5814;41.936;25.556;2023-05-27T11:49:05;5.68;;;5.18;;
11514;SDS011;5814;41.936;25.556;2023-05-27T11:51:33;6.95;;;6.40;;
11514;SDS011;5814;41.936;25.556;2023-05-27T11:53:58;5.55;;;5.25;;
11514;SDS011;5814;41.936;25.556;2023-05-27T11:56:24;6.07;;;5.57;;
11514;SDS011;5814;41.936;25.556;2023-05-27T11:58:51;6.00;;;5.57;;
11514;SDS011;5814;41.936;25.556;2023-05-27T12:01:17;6.35;;;5.93;;
11514;SDS011;5814;41.936;25.556;2023-05-27T12:03:43;9.60;;;5.97;;
11514;SDS011;5814;41.936;25.556;2023-05-27T12:06:10;6.50;;;6.00;;
11514;SDS011;5814;41.936;25.556;2023-05-27T12:08:36;5.80;;;5.40;;
11514;SDS011;5814;41.936;25.556;2023-05-27T12:11:03;6.30;;;5.80;;
11514;SDS011;5814;41.936;25.556;2023-05-27T12:13:29;6.00;;;5.70;;
11514;SDS011;5814;41.936;25.556;2023-05-27T12:15:56;6.15;;;5.80;;
11514;SDS011;5814;41.936;25.556;2023-05-27T12:18:22;6.32;;;5.85;;
11514;SDS011;5814;41.936;25.556;2023-05-27T12:20:48;6.30;;;5.90;;
11514;SDS011;5814;41.936;25.556;2023-05-27T12:23:15;6.10;;;5.60;;
11514;SDS011;5814;41.936;25.556;2023-05-27T12:25:41;5.87;;;5.47;;
11514;SDS011;5814;41.936;25.556;2023-05-27T12:28:07;6.50;;;5.62;;
11514;SDS011;5814;41.936;25.556;2023-05-27T12:30:34;5.65;;;5.32;;
11514;SDS011;5814;41.936;25.556;2023-05-27T12:33:01;6.00;;;5.60;;
11514;SDS011;5814;41.936;25.556;2023-05-27T12:35:26;6.10;;;5.68;;
11514;SDS011;5814;41.936;25.556;2023-05-27T12:37:53;5.70;;;5.40;;
11514;SDS011;5814;41.936;25.556;2023-05-27T12:40:19;5.53;;;5.22;;
11514;SDS011;5814;41.936;25.556;2023-05-27T12:42:45;12.65;;;11.43;;
11514;SDS011;5814;41.936;25.556;2023-05-27T12:45:12;6.53;;;5.97;;
11514;SDS011;5814;41.936;25.556;2023-05-27T12:47:38;6.18;;;5.68;;
11514;SDS011;5814;41.936;25.556;2023-05-27T12:50:05;5.32;;;5.03;;
11514;SDS011;5814;41.936;25.556;2023-05-27T12:52:31;5.72;;;5.15;;
11514;SDS011;5814;41.936;25.556;2023-05-27T12:54:59;5.85;;;5.55;;
11514;SDS011;5814;41.936;25.556;2023-05-27T12:57:24;5.90;;;5.50;;
11514;SDS011;5814;41.936;25.556;2023-05-27T12:59:50;5.60;;;5.30;;
11514;SDS011;5814;41.936;25.556;2023-05-27T13:02:17;5.78;;;5.47;;
11514;SDS011;5814;41.936;25.556;2023-05-27T13:04:43;6.75;;;6.22;;
11514;SDS011;5814;41.936;25.556;2023-05-27T13:07:10;8.15;;;6.07;;
11514;SDS011;5814;41.936;25.556;2023-05-27T13:09:37;5.65;;;5.35;;
11514;SDS011;5814;41.936;25.556;2023-05-27T13:12:02;5.93;;;5.53;;
11514;SDS011;5814;41.936;25.556;2023-05-27T13:14:29;5.47;;;5.07;;
11514;SDS011;5814;41.936;25.556;2023-05-27T13:16:55;6.68;;;6.20;;
11514;SDS011;5814;41.936;25.556;2023-05-27T13:19:22;6.28;;;5.78;;
11514;SDS011;5814;41.936;25.556;2023-05-27T13:21:48;6.00;;;5.50;;
11514;SDS011;5814;41.936;25.556;2023-05-27T13:24:14;7.32;;;5.72;;
11514;SDS011;5814;41.936;25.556;2023-05-27T13:26:41;6.72;;;6.00;;
11514;SDS011;5814;41.936;25.556;2023-05-27T13:29:07;6.37;;;5.93;;
11514;SDS011;5814;41.936;25.556;2023-05-27T13:31:33;6.10;;;5.60;;
11514;SDS011;5814;41.936;25.556;2023-05-27T13:34:00;6.60;;;6.10;;
11514;SDS011;5814;41.936;25.556;2023-05-27T13:36:26;5.87;;;5.40;;
11514;SDS011;5814;41.936;25.556;2023-05-27T13:38:52;6.30;;;5.85;;
11514;SDS011;5814;41.936;25.556;2023-05-27T13:41:19;6.47;;;6.07;;
11514;SDS011;5814;41.936;25.556;2023-05-27T13:43:45;5.90;;;5.50;;
11514;SDS011;5814;41.936;25.556;2023-05-27T13:46:11;5.82;;;5.43;;
11514;SDS011;5814;41.936;25.556;2023-05-27T13:48:38;6.05;;;5.65;;
11514;SDS011;5814;41.936;25.556;2023-05-27T13:51:04;5.80;;;5.50;;
11514;SDS011;5814;41.936;25.556;2023-05-27T13:53:30;6.50;;;5.97;;
11514;SDS011;5814;41.936;25.556;2023-05-27T13:55:57;6.62;;;6.20;;
11514;SDS011;5814;41.936;25.556;2023-05-27T13:58:23;6.07;;;5.78;;
11514;SDS011;5814;41.936;25.556;2023-05-27T14:00:50;6.03;;;5.50;;
11514;SDS011;5814;41.936;25.556;2023-05-27T14:03:16;6.28;;;5.68;;
11514;SDS011;5814;41.936;25.556;2023-05-27T14:05:42;5.62;;;5.32;;
11514;SDS011;5814;41.936;25.556;2023-05-27T14:08:09;6.68;;;6.07;;
11514;SDS011;5814;41.936;25.556;2023-05-27T14:10:35;6.37;;;5.93;;
11514;SDS011;5814;41.936;25.556;2023-05-27T14:13:01;6.05;;;5.55;;
11514;SDS011;5814;41.936;25.556;2023-05-27T14:15:28;6.37;;;5.97;;
11514;SDS011;5814;41.936;25.556;2023-05-27T14:17:54;5.90;;;5.60;;
11514;SDS011;5814;41.936;25.556;2023-05-27T14:20:20;6.65;;;6.20;;
11514;SDS011;5814;41.936;25.556;2023-05-27T14:22:47;5.95;;;5.60;;
11514;SDS011;5814;41.936;25.556;2023-05-27T14:25:13;6.37;;;5.97;;
11514;SDS011;5814;41.936;25.556;2023-05-27T14:27:40;7.85;;;7.18;;
11514;SDS011;5814;41.936;25.556;2023-05-27T14:30:06;6.78;;;6.15;;
11514;SDS011;5814;41.936;25.556;2023-05-27T14:32:33;6.72;;;6.12;;
11514;SDS011;5814;41.936;25.556;2023-05-27T14:34:59;6.28;;;5.78;;
11514;SDS011;5814;41.936;25.556;2023-05-27T14:37:26;6.40;;;6.00;;
11514;SDS011;5814;41.936;25.556;2023-05-27T14:39:52;6.60;;;6.20;;
11514;SDS011;5814;41.936;25.556;2023-05-27T14:42:19;6.35;;;5.95;;
11514;SDS011;5814;41.936;25.556;2023-05-27T14:44:45;6.22;;;5.82;;